Huvudsida
METAR-TAF:

METAR-TAF

Flygplatser :

Arlanda

Stockholm-Arlanda, Sverige

latitud: 59-39N, longitud: 017-57E, höjd: 38 m

Aktuellt väderrapport

Denna rapport gjordes för 39 minuter sedan, klockan 20:20 UTC
Vind 13 kt från nord/nordost
Temperatur 3°C
Fuktighet 87%
Tryck 1024 hPa
Sikt 10 km eller mer
Brutna moln på en höjd av 1000 ft

METAR: ESSA 112020Z 02013KT 9999 BKN010 03/01 Q1024 R01L/19//95 R08/19//95 R01R/19//95 NOSIG

Tid: 21:59 (20:59 UTC)

Väderprognos

Denna rapport gjordes för 3 timmar och 29 minuter sedan, klockan 17:30 UTC
Prognos gäller från 11 kl. 18 UTC till 12 kl. 18 UTC
Vind 8 kt från nord
Sikt 10 km eller mer
Spridda moln på en höjd av 800 ft
Brutna moln på en höjd av 1800 ft
Sannolikhet 40%
från 11 kl. 18 UTC till 11 kl. 22 UTC
Brutna moln på en höjd av 700 ft
Temporärt
från 12 kl. 00 UTC till 12 kl. 12 UTC
Sikt: 4000 m
Brutna moln på en höjd av 400 ft
snö

TAF: ESSA 111730Z 1118/1218 01008KT 9999 SCT008 BKN018 PROB40 1118/1122 BKN007 TEMPO 1200/1212 4000 SN BKN004

Aktuella väderrapporter och prognoser från 4000 flygplatser (METAR- och TAF-rapporter).

De tillgängliga stationerna syns som gula och röda prickar på kartan.

För musen över prickarna för att se namnen på stationerna.

Klicka sedan för att få väderrapporter och prognoser.

För att ändra kartan: Klicka på de gröna knapparna med ett svart kors på för att zooma in; den gröna knappen med ett streck på för att zooma ut; eller på de gröna pilarna för angränsande kartor.


METAR-TAF: